sensor_id;sensor_type;location;lat;lon;timestamp;P1;durP1;ratioP1;P2;durP2;ratioP2
56999;SDS011;42891;50.006;21.964;2023-01-10T00:00:12;45.20;;;25.33;;
56999;SDS011;42891;50.006;21.964;2023-01-10T00:04:12;42.85;;;25.42;;
56999;SDS011;42891;50.006;21.964;2023-01-10T00:08:14;41.35;;;24.65;;
56999;SDS011;42891;50.006;21.964;2023-01-10T00:12:15;37.38;;;22.88;;
56999;SDS011;42891;50.006;21.964;2023-01-10T00:16:34;36.53;;;21.95;;
56999;SDS011;42891;50.006;21.964;2023-01-10T00:20:36;31.92;;;20.15;;
56999;SDS011;42891;50.006;21.964;2023-01-10T00:24:36;35.10;;;21.65;;
56999;SDS011;42891;50.006;21.964;2023-01-10T00:28:37;34.33;;;22.35;;
56999;SDS011;42891;50.006;21.964;2023-01-10T00:32:39;34.75;;;21.95;;
56999;SDS011;42891;50.006;21.964;2023-01-10T00:36:41;35.88;;;23.55;;
56999;SDS011;42891;50.006;21.964;2023-01-10T00:40:41;30.58;;;20.75;;
56999;SDS011;42891;50.006;21.964;2023-01-10T00:44:41;33.97;;;21.07;;
56999;SDS011;42891;50.006;21.964;2023-01-10T00:48:42;32.55;;;21.10;;
56999;SDS011;42891;50.006;21.964;2023-01-10T00:52:42;36.30;;;21.27;;
56999;SDS011;42891;50.006;21.964;2023-01-10T00:56:42;35.03;;;22.75;;
56999;SDS011;42891;50.006;21.964;2023-01-10T01:00:43;33.53;;;20.83;;
56999;SDS011;42891;50.006;21.964;2023-01-10T01:04:48;32.13;;;21.42;;
56999;SDS011;42891;50.006;21.964;2023-01-10T01:08:48;35.15;;;22.85;;
56999;SDS011;42891;50.006;21.964;2023-01-10T01:12:49;32.23;;;20.37;;
56999;SDS011;42891;50.006;21.964;2023-01-10T01:16:49;33.80;;;20.63;;
56999;SDS011;42891;50.006;21.964;2023-01-10T01:20:56;29.10;;;20.25;;
56999;SDS011;42891;50.006;21.964;2023-01-10T01:24:59;30.73;;;19.35;;
56999;SDS011;42891;50.006;21.964;2023-01-10T01:28:59;32.25;;;21.13;;
56999;SDS011;42891;50.006;21.964;2023-01-10T01:32:59;28.25;;;20.25;;
56999;SDS011;42891;50.006;21.964;2023-01-10T01:37:00;32.33;;;22.20;;
56999;SDS011;42891;50.006;21.964;2023-01-10T01:41:00;33.33;;;21.60;;
56999;SDS011;42891;50.006;21.964;2023-01-10T01:49:14;33.53;;;21.17;;
56999;SDS011;42891;50.006;21.964;2023-01-10T01:53:22;37.40;;;21.77;;
56999;SDS011;42891;50.006;21.964;2023-01-10T01:57:28;34.58;;;21.67;;
56999;SDS011;42891;50.006;21.964;2023-01-10T02:01:31;30.42;;;20.65;;
56999;SDS011;42891;50.006;21.964;2023-01-10T02:05:33;29.65;;;19.33;;
56999;SDS011;42891;50.006;21.964;2023-01-10T02:13:48;33.97;;;21.95;;
56999;SDS011;42891;50.006;21.964;2023-01-10T02:17:49;33.08;;;21.85;;
56999;SDS011;42891;50.006;21.964;2023-01-10T02:21:59;32.67;;;19.98;;
56999;SDS011;42891;50.006;21.964;2023-01-10T02:26:22;34.65;;;21.65;;
56999;SDS011;42891;50.006;21.964;2023-01-10T02:39:43;30.33;;;19.67;;
56999;SDS011;42891;50.006;21.964;2023-01-10T02:44:01;30.65;;;20.25;;
56999;SDS011;42891;50.006;21.964;2023-01-10T02:48:06;28.15;;;20.45;;
56999;SDS011;42891;50.006;21.964;2023-01-10T02:52:06;27.73;;;19.33;;
56999;SDS011;42891;50.006;21.964;2023-01-10T03:00:49;33.35;;;22.48;;
56999;SDS011;42891;50.006;21.964;2023-01-10T03:05:17;36.80;;;24.15;;
56999;SDS011;42891;50.006;21.964;2023-01-10T03:13:49;39.40;;;25.63;;
56999;SDS011;42891;50.006;21.964;2023-01-10T03:17:54;43.33;;;24.63;;
56999;SDS011;42891;50.006;21.964;2023-01-10T03:21:58;47.10;;;27.25;;
56999;SDS011;42891;50.006;21.964;2023-01-10T03:26:01;47.50;;;27.70;;
56999;SDS011;42891;50.006;21.964;2023-01-10T03:30:05;47.50;;;27.85;;
56999;SDS011;42891;50.006;21.964;2023-01-10T03:34:25;48.70;;;27.17;;
56999;SDS011;42891;50.006;21.964;2023-01-10T03:38:28;42.65;;;26.73;;
56999;SDS011;42891;50.006;21.964;2023-01-10T03:51:32;40.35;;;24.77;;
56999;SDS011;42891;50.006;21.964;2023-01-10T03:55:33;40.95;;;26.92;;
56999;SDS011;42891;50.006;21.964;2023-01-10T03:59:34;48.50;;;28.85;;
56999;SDS011;42891;50.006;21.964;2023-01-10T04:03:35;46.90;;;29.47;;
56999;SDS011;42891;50.006;21.964;2023-01-10T04:07:35;56.07;;;33.03;;
56999;SDS011;42891;50.006;21.964;2023-01-10T04:11:36;50.38;;;31.88;;
56999;SDS011;42891;50.006;21.964;2023-01-10T04:15:36;51.67;;;32.40;;
56999;SDS011;42891;50.006;21.964;2023-01-10T04:19:36;50.10;;;32.80;;
56999;SDS011;42891;50.006;21.964;2023-01-10T04:23:36;58.87;;;33.97;;
56999;SDS011;42891;50.006;21.964;2023-01-10T04:27:37;52.90;;;32.50;;
56999;SDS011;42891;50.006;21.964;2023-01-10T04:31:37;52.83;;;33.13;;
56999;SDS011;42891;50.006;21.964;2023-01-10T04:35:38;52.53;;;33.60;;
56999;SDS011;42891;50.006;21.964;2023-01-10T04:39:39;51.70;;;32.10;;
56999;SDS011;42891;50.006;21.964;2023-01-10T04:43:40;51.92;;;31.98;;
56999;SDS011;42891;50.006;21.964;2023-01-10T04:47:40;53.92;;;32.58;;
56999;SDS011;42891;50.006;21.964;2023-01-10T04:51:40;49.23;;;30.33;;
56999;SDS011;42891;50.006;21.964;2023-01-10T04:55:40;52.23;;;30.90;;
56999;SDS011;42891;50.006;21.964;2023-01-10T04:59:41;54.20;;;34.10;;
56999;SDS011;42891;50.006;21.964;2023-01-10T05:03:41;55.47;;;33.90;;
56999;SDS011;42891;50.006;21.964;2023-01-10T05:07:44;53.15;;;32.50;;
56999;SDS011;42891;50.006;21.964;2023-01-10T05:11:45;46.38;;;30.23;;
56999;SDS011;42891;50.006;21.964;2023-01-10T05:15:45;52.97;;;31.87;;
56999;SDS011;42891;50.006;21.964;2023-01-10T05:19:46;47.77;;;30.13;;
56999;SDS011;42891;50.006;21.964;2023-01-10T05:23:46;45.42;;;29.52;;
56999;SDS011;42891;50.006;21.964;2023-01-10T05:27:46;45.47;;;28.10;;
56999;SDS011;42891;50.006;21.964;2023-01-10T05:31:49;50.27;;;32.00;;
56999;SDS011;42891;50.006;21.964;2023-01-10T05:35:50;51.78;;;31.70;;
56999;SDS011;42891;50.006;21.964;2023-01-10T05:39:50;48.30;;;31.57;;
56999;SDS011;42891;50.006;21.964;2023-01-10T05:43:51;51.47;;;31.27;;
56999;SDS011;42891;50.006;21.964;2023-01-10T05:47:51;48.08;;;33.72;;
56999;SDS011;42891;50.006;21.964;2023-01-10T05:51:52;41.38;;;27.85;;
56999;SDS011;42891;50.006;21.964;2023-01-10T05:55:55;42.63;;;27.63;;
56999;SDS011;42891;50.006;21.964;2023-01-10T05:59:57;39.00;;;26.67;;
56999;SDS011;42891;50.006;21.964;2023-01-10T06:03:57;41.38;;;26.98;;
56999;SDS011;42891;50.006;21.964;2023-01-10T06:07:57;43.28;;;26.88;;
56999;SDS011;42891;50.006;21.964;2023-01-10T06:11:58;39.78;;;26.35;;
56999;SDS011;42891;50.006;21.964;2023-01-10T06:15:58;41.75;;;27.73;;
56999;SDS011;42891;50.006;21.964;2023-01-10T06:19:59;39.22;;;25.83;;
56999;SDS011;42891;50.006;21.964;2023-01-10T06:23:59;38.07;;;26.60;;
56999;SDS011;42891;50.006;21.964;2023-01-10T06:27:59;44.03;;;29.80;;
56999;SDS011;42891;50.006;21.964;2023-01-10T06:32:00;36.20;;;24.48;;
56999;SDS011;42891;50.006;21.964;2023-01-10T06:36:00;37.45;;;24.98;;
56999;SDS011;42891;50.006;21.964;2023-01-10T06:40:01;36.40;;;24.35;;
56999;SDS011;42891;50.006;21.964;2023-01-10T06:44:02;33.97;;;24.38;;
56999;SDS011;42891;50.006;21.964;2023-01-10T06:48:02;38.45;;;26.63;;
56999;SDS011;42891;50.006;21.964;2023-01-10T06:52:03;42.28;;;28.15;;
56999;SDS011;42891;50.006;21.964;2023-01-10T06:56:04;41.95;;;28.98;;
56999;SDS011;42891;50.006;21.964;2023-01-10T07:00:05;42.25;;;28.05;;
56999;SDS011;42891;50.006;21.964;2023-01-10T07:04:07;46.28;;;30.30;;
56999;SDS011;42891;50.006;21.964;2023-01-10T07:08:08;47.17;;;31.70;;
56999;SDS011;42891;50.006;21.964;2023-01-10T07:12:08;47.17;;;30.77;;
56999;SDS011;42891;50.006;21.964;2023-01-10T07:16:09;38.15;;;23.73;;
56999;SDS011;42891;50.006;21.964;2023-01-10T07:20:11;38.00;;;26.55;;
56999;SDS011;42891;50.006;21.964;2023-01-10T07:24:12;37.67;;;25.30;;
56999;SDS011;42891;50.006;21.964;2023-01-10T07:28:12;41.75;;;24.65;;
56999;SDS011;42891;50.006;21.964;2023-01-10T07:32:13;39.58;;;24.65;;
56999;SDS011;42891;50.006;21.964;2023-01-10T07:36:13;41.00;;;25.83;;
56999;SDS011;42891;50.006;21.964;2023-01-10T07:40:14;46.80;;;27.25;;
56999;SDS011;42891;50.006;21.964;2023-01-10T07:44:14;38.13;;;24.65;;
56999;SDS011;42891;50.006;21.964;2023-01-10T07:48:15;50.90;;;29.00;;
56999;SDS011;42891;50.006;21.964;2023-01-10T07:52:15;59.15;;;31.83;;
56999;SDS011;42891;50.006;21.964;2023-01-10T07:56:15;47.63;;;29.83;;
56999;SDS011;42891;50.006;21.964;2023-01-10T08:00:16;39.87;;;25.60;;
56999;SDS011;42891;50.006;21.964;2023-01-10T08:04:17;43.50;;;27.38;;
56999;SDS011;42891;50.006;21.964;2023-01-10T08:08:18;42.90;;;25.38;;
56999;SDS011;42891;50.006;21.964;2023-01-10T08:12:19;41.67;;;25.05;;
56999;SDS011;42891;50.006;21.964;2023-01-10T08:16:20;37.33;;;22.95;;
56999;SDS011;42891;50.006;21.964;2023-01-10T08:20:20;30.57;;;21.07;;
56999;SDS011;42891;50.006;21.964;2023-01-10T08:24:21;28.53;;;18.80;;
56999;SDS011;42891;50.006;21.964;2023-01-10T08:28:21;32.03;;;20.93;;
56999;SDS011;42891;50.006;21.964;2023-01-10T08:32:21;26.93;;;18.77;;
56999;SDS011;42891;50.006;21.964;2023-01-10T08:36:21;28.13;;;19.23;;
56999;SDS011;42891;50.006;21.964;2023-01-10T08:40:23;27.65;;;20.02;;
56999;SDS011;42891;50.006;21.964;2023-01-10T08:44:23;29.33;;;19.30;;
56999;SDS011;42891;50.006;21.964;2023-01-10T08:48:25;31.08;;;19.58;;
56999;SDS011;42891;50.006;21.964;2023-01-10T08:52:25;33.57;;;22.07;;
56999;SDS011;42891;50.006;21.964;2023-01-10T08:56:26;27.90;;;19.30;;
56999;SDS011;42891;50.006;21.964;2023-01-10T09:00:27;26.88;;;18.60;;
56999;SDS011;42891;50.006;21.964;2023-01-10T09:04:27;24.83;;;18.23;;
56999;SDS011;42891;50.006;21.964;2023-01-10T09:08:28;26.33;;;18.08;;
56999;SDS011;42891;50.006;21.964;2023-01-10T09:12:29;26.35;;;18.15;;
56999;SDS011;42891;50.006;21.964;2023-01-10T09:16:48;29.90;;;19.75;;
56999;SDS011;42891;50.006;21.964;2023-01-10T09:20:50;32.38;;;21.48;;
56999;SDS011;42891;50.006;21.964;2023-01-10T09:24:51;33.85;;;23.42;;
56999;SDS011;42891;50.006;21.964;2023-01-10T09:28:52;32.92;;;22.15;;
56999;SDS011;42891;50.006;21.964;2023-01-10T09:32:52;32.50;;;21.67;;
56999;SDS011;42891;50.006;21.964;2023-01-10T09:36:53;27.65;;;19.67;;
56999;SDS011;42891;50.006;21.964;2023-01-10T09:49:45;25.88;;;18.85;;
56999;SDS011;42891;50.006;21.964;2023-01-10T09:53:46;25.95;;;18.95;;
56999;SDS011;42891;50.006;21.964;2023-01-10T09:57:48;22.25;;;16.75;;
56999;SDS011;42891;50.006;21.964;2023-01-10T10:01:53;21.95;;;15.25;;
56999;SDS011;42891;50.006;21.964;2023-01-10T10:05:59;24.70;;;16.90;;
56999;SDS011;42891;50.006;21.964;2023-01-10T10:10:06;24.08;;;15.80;;
56999;SDS011;42891;50.006;21.964;2023-01-10T10:27:21;16.92;;;13.02;;
56999;SDS011;42891;50.006;21.964;2023-01-10T10:35:32;14.27;;;11.65;;
56999;SDS011;42891;50.006;21.964;2023-01-10T10:39:44;14.10;;;11.45;;
56999;SDS011;42891;50.006;21.964;2023-01-10T10:43:48;20.20;;;14.43;;
56999;SDS011;42891;50.006;21.964;2023-01-10T10:47:52;20.30;;;15.43;;
56999;SDS011;42891;50.006;21.964;2023-01-10T10:51:59;18.38;;;13.93;;
56999;SDS011;42891;50.006;21.964;2023-01-10T10:56:10;15.25;;;12.23;;
56999;SDS011;42891;50.006;21.964;2023-01-10T11:00:16;14.40;;;11.45;;
56999;SDS011;42891;50.006;21.964;2023-01-10T11:04:19;15.43;;;12.23;;
56999;SDS011;42891;50.006;21.964;2023-01-10T11:08:21;14.57;;;11.50;;
56999;SDS011;42891;50.006;21.964;2023-01-10T11:12:25;14.55;;;10.90;;
56999;SDS011;42891;50.006;21.964;2023-01-10T11:20:32;15.95;;;10.93;;
56999;SDS011;42891;50.006;21.964;2023-01-10T11:24:34;17.02;;;12.88;;
56999;SDS011;42891;50.006;21.964;2023-01-10T11:28:41;14.48;;;11.48;;
56999;SDS011;42891;50.006;21.964;2023-01-10T11:32:51;13.52;;;10.50;;
56999;SDS011;42891;50.006;21.964;2023-01-10T11:41:00;14.18;;;11.18;;
56999;SDS011;42891;50.006;21.964;2023-01-10T11:45:22;14.60;;;10.95;;
56999;SDS011;42891;50.006;21.964;2023-01-10T11:53:36;13.05;;;11.13;;
56999;SDS011;42891;50.006;21.964;2023-01-10T11:57:39;19.20;;;14.60;;
56999;SDS011;42891;50.006;21.964;2023-01-10T12:01:42;16.65;;;12.77;;
56999;SDS011;42891;50.006;21.964;2023-01-10T12:14:00;23.17;;;15.85;;
56999;SDS011;42891;50.006;21.964;2023-01-10T12:18:02;28.55;;;16.92;;
56999;SDS011;42891;50.006;21.964;2023-01-10T12:22:05;29.92;;;18.50;;
56999;SDS011;42891;50.006;21.964;2023-01-10T12:26:07;20.88;;;14.55;;
56999;SDS011;42891;50.006;21.964;2023-01-10T12:30:14;21.02;;;14.65;;
56999;SDS011;42891;50.006;21.964;2023-01-10T12:34:26;20.30;;;14.73;;
56999;SDS011;42891;50.006;21.964;2023-01-10T12:38:41;15.73;;;12.07;;
56999;SDS011;42891;50.006;21.964;2023-01-10T12:43:22;16.88;;;12.70;;
56999;SDS011;42891;50.006;21.964;2023-01-10T12:47:54;20.55;;;16.45;;
56999;SDS011;42891;50.006;21.964;2023-01-10T12:52:03;22.58;;;17.45;;
56999;SDS011;42891;50.006;21.964;2023-01-10T12:56:10;18.80;;;14.45;;
56999;SDS011;42891;50.006;21.964;2023-01-10T13:00:20;21.23;;;14.70;;
56999;SDS011;42891;50.006;21.964;2023-01-10T13:04:24;16.95;;;12.05;;
56999;SDS011;42891;50.006;21.964;2023-01-10T13:08:27;16.60;;;13.38;;
56999;SDS011;42891;50.006;21.964;2023-01-10T13:12:37;23.63;;;16.23;;
56999;SDS011;42891;50.006;21.964;2023-01-10T13:16:53;19.88;;;14.52;;
56999;SDS011;42891;50.006;21.964;2023-01-10T13:29:22;14.05;;;10.95;;
56999;SDS011;42891;50.006;21.964;2023-01-10T13:33:25;16.00;;;12.95;;
56999;SDS011;42891;50.006;21.964;2023-01-10T13:37:30;19.70;;;14.27;;
56999;SDS011;42891;50.006;21.964;2023-01-10T13:54:53;20.95;;;15.98;;
56999;SDS011;42891;50.006;21.964;2023-01-10T13:58:55;19.52;;;14.45;;
56999;SDS011;42891;50.006;21.964;2023-01-10T14:07:45;17.40;;;13.80;;
56999;SDS011;42891;50.006;21.964;2023-01-10T14:11:51;14.93;;;12.02;;
56999;SDS011;42891;50.006;21.964;2023-01-10T14:15:54;14.52;;;11.18;;
56999;SDS011;42891;50.006;21.964;2023-01-10T14:20:05;17.08;;;11.98;;
56999;SDS011;42891;50.006;21.964;2023-01-10T14:24:14;17.05;;;11.43;;
56999;SDS011;42891;50.006;21.964;2023-01-10T14:28:41;13.52;;;10.50;;
56999;SDS011;42891;50.006;21.964;2023-01-10T14:32:42;16.65;;;12.18;;
56999;SDS011;42891;50.006;21.964;2023-01-10T14:40:58;26.63;;;17.05;;
56999;SDS011;42891;50.006;21.964;2023-01-10T14:49:49;28.60;;;19.70;;
56999;SDS011;42891;50.006;21.964;2023-01-10T14:53:56;28.65;;;19.13;;
56999;SDS011;42891;50.006;21.964;2023-01-10T14:58:01;17.65;;;12.90;;
56999;SDS011;42891;50.006;21.964;2023-01-10T15:02:15;13.80;;;10.60;;
56999;SDS011;42891;50.006;21.964;2023-01-10T15:06:22;16.50;;;10.20;;
56999;SDS011;42891;50.006;21.964;2023-01-10T15:14:24;12.30;;;9.45;;
56999;SDS011;42891;50.006;21.964;2023-01-10T15:22:36;15.48;;;9.80;;
56999;SDS011;42891;50.006;21.964;2023-01-10T15:26:36;12.75;;;9.25;;
56999;SDS011;42891;50.006;21.964;2023-01-10T15:30:37;14.15;;;9.55;;
56999;SDS011;42891;50.006;21.964;2023-01-10T15:34:37;12.80;;;8.68;;
56999;SDS011;42891;50.006;21.964;2023-01-10T15:38:40;12.82;;;9.07;;
56999;SDS011;42891;50.006;21.964;2023-01-10T15:42:43;13.70;;;9.10;;
56999;SDS011;42891;50.006;21.964;2023-01-10T15:46:53;14.45;;;10.20;;
56999;SDS011;42891;50.006;21.964;2023-01-10T15:50:56;13.73;;;10.23;;
56999;SDS011;42891;50.006;21.964;2023-01-10T16:03:22;16.00;;;11.38;;
56999;SDS011;42891;50.006;21.964;2023-01-10T16:07:29;18.98;;;12.77;;
56999;SDS011;42891;50.006;21.964;2023-01-10T16:12:06;15.60;;;11.13;;
56999;SDS011;42891;50.006;21.964;2023-01-10T16:16:18;18.63;;;12.40;;
56999;SDS011;42891;50.006;21.964;2023-01-10T16:20:20;15.55;;;11.38;;
56999;SDS011;42891;50.006;21.964;2023-01-10T16:24:43;16.60;;;12.40;;
56999;SDS011;42891;50.006;21.964;2023-01-10T16:28:43;17.77;;;11.90;;
56999;SDS011;42891;50.006;21.964;2023-01-10T16:32:44;23.27;;;14.80;;
56999;SDS011;42891;50.006;21.964;2023-01-10T16:36:44;22.27;;;14.40;;
56999;SDS011;42891;50.006;21.964;2023-01-10T16:44:53;27.15;;;15.82;;
56999;SDS011;42891;50.006;21.964;2023-01-10T16:48:54;18.47;;;13.17;;
56999;SDS011;42891;50.006;21.964;2023-01-10T16:52:54;18.02;;;12.38;;
56999;SDS011;42891;50.006;21.964;2023-01-10T16:56:54;18.17;;;13.10;;
56999;SDS011;42891;50.006;21.964;2023-01-10T17:00:55;16.92;;;12.38;;
56999;SDS011;42891;50.006;21.964;2023-01-10T17:04:57;18.60;;;13.55;;
56999;SDS011;42891;50.006;21.964;2023-01-10T17:08:58;18.73;;;12.80;;
56999;SDS011;42891;50.006;21.964;2023-01-10T17:12:59;19.40;;;12.38;;
56999;SDS011;42891;50.006;21.964;2023-01-10T17:17:02;19.17;;;13.23;;
56999;SDS011;42891;50.006;21.964;2023-01-10T17:21:03;19.73;;;12.50;;
56999;SDS011;42891;50.006;21.964;2023-01-10T17:25:04;18.13;;;12.75;;
56999;SDS011;42891;50.006;21.964;2023-01-10T17:29:04;20.23;;;12.60;;
56999;SDS011;42891;50.006;21.964;2023-01-10T17:33:05;19.33;;;12.65;;
56999;SDS011;42891;50.006;21.964;2023-01-10T17:37:09;22.05;;;13.85;;
56999;SDS011;42891;50.006;21.964;2023-01-10T17:41:10;21.02;;;12.57;;
56999;SDS011;42891;50.006;21.964;2023-01-10T17:45:10;21.07;;;12.90;;
56999;SDS011;42891;50.006;21.964;2023-01-10T17:49:10;21.92;;;14.52;;
56999;SDS011;42891;50.006;21.964;2023-01-10T17:53:11;39.08;;;21.05;;
56999;SDS011;42891;50.006;21.964;2023-01-10T17:57:11;30.77;;;16.92;;
56999;SDS011;42891;50.006;21.964;2023-01-10T18:01:17;20.38;;;13.43;;
56999;SDS011;42891;50.006;21.964;2023-01-10T18:09:19;62.80;;;38.33;;
56999;SDS011;42891;50.006;21.964;2023-01-10T18:13:20;21.00;;;13.47;;
56999;SDS011;42891;50.006;21.964;2023-01-10T18:17:20;24.75;;;17.58;;
56999;SDS011;42891;50.006;21.964;2023-01-10T18:21:20;20.00;;;12.10;;
56999;SDS011;42891;50.006;21.964;2023-01-10T18:25:20;21.63;;;14.13;;
56999;SDS011;42891;50.006;21.964;2023-01-10T18:29:22;20.92;;;13.45;;
56999;SDS011;42891;50.006;21.964;2023-01-10T18:33:22;22.73;;;13.38;;
56999;SDS011;42891;50.006;21.964;2023-01-10T18:37:22;20.70;;;13.07;;
56999;SDS011;42891;50.006;21.964;2023-01-10T18:41:23;23.25;;;13.70;;
56999;SDS011;42891;50.006;21.964;2023-01-10T18:45:26;22.88;;;14.85;;
56999;SDS011;42891;50.006;21.964;2023-01-10T18:49:29;22.20;;;14.07;;
56999;SDS011;42891;50.006;21.964;2023-01-10T18:53:29;23.67;;;14.33;;
56999;SDS011;42891;50.006;21.964;2023-01-10T18:57:30;24.58;;;15.32;;
56999;SDS011;42891;50.006;21.964;2023-01-10T19:01:31;24.38;;;16.02;;
56999;SDS011;42891;50.006;21.964;2023-01-10T19:05:31;24.83;;;15.43;;
56999;SDS011;42891;50.006;21.964;2023-01-10T19:09:32;28.87;;;16.13;;
56999;SDS011;42891;50.006;21.964;2023-01-10T19:13:32;28.02;;;17.50;;
56999;SDS011;42891;50.006;21.964;2023-01-10T19:17:33;29.52;;;17.63;;
56999;SDS011;42891;50.006;21.964;2023-01-10T19:21:33;28.13;;;16.53;;
56999;SDS011;42891;50.006;21.964;2023-01-10T19:25:36;26.02;;;16.35;;
56999;SDS011;42891;50.006;21.964;2023-01-10T19:29:37;28.75;;;17.25;;
56999;SDS011;42891;50.006;21.964;2023-01-10T19:33:37;47.13;;;28.98;;
56999;SDS011;42891;50.006;21.964;2023-01-10T19:37:38;37.00;;;21.90;;
56999;SDS011;42891;50.006;21.964;2023-01-10T19:41:38;39.78;;;23.00;;
56999;SDS011;42891;50.006;21.964;2023-01-10T19:45:40;38.45;;;23.15;;
56999;SDS011;42891;50.006;21.964;2023-01-10T19:49:40;54.83;;;31.67;;
56999;SDS011;42891;50.006;21.964;2023-01-10T19:53:41;45.72;;;23.17;;
56999;SDS011;42891;50.006;21.964;2023-01-10T19:57:45;38.58;;;22.55;;
56999;SDS011;42891;50.006;21.964;2023-01-10T20:01:45;40.00;;;24.52;;
56999;SDS011;42891;50.006;21.964;2023-01-10T20:05:46;37.97;;;22.35;;
56999;SDS011;42891;50.006;21.964;2023-01-10T20:09:47;41.87;;;25.27;;
56999;SDS011;42891;50.006;21.964;2023-01-10T20:13:47;43.50;;;24.60;;
56999;SDS011;42891;50.006;21.964;2023-01-10T20:17:48;41.83;;;23.98;;
56999;SDS011;42891;50.006;21.964;2023-01-10T20:21:48;34.47;;;21.27;;
56999;SDS011;42891;50.006;21.964;2023-01-10T20:25:59;39.08;;;23.15;;
56999;SDS011;42891;50.006;21.964;2023-01-10T20:30:02;38.28;;;22.63;;
56999;SDS011;42891;50.006;21.964;2023-01-10T20:34:03;34.70;;;21.27;;
56999;SDS011;42891;50.006;21.964;2023-01-10T20:38:04;34.60;;;21.25;;
56999;SDS011;42891;50.006;21.964;2023-01-10T20:42:06;42.40;;;23.10;;
56999;SDS011;42891;50.006;21.964;2023-01-10T20:46:07;43.42;;;24.75;;
56999;SDS011;42891;50.006;21.964;2023-01-10T20:50:14;41.90;;;24.27;;
56999;SDS011;42891;50.006;21.964;2023-01-10T20:54:15;45.38;;;24.75;;
56999;SDS011;42891;50.006;21.964;2023-01-10T20:58:15;42.58;;;25.10;;
56999;SDS011;42891;50.006;21.964;2023-01-10T21:02:15;44.97;;;26.63;;
56999;SDS011;42891;50.006;21.964;2023-01-10T21:06:16;52.03;;;29.60;;
56999;SDS011;42891;50.006;21.964;2023-01-10T21:10:18;48.78;;;25.42;;
56999;SDS011;42891;50.006;21.964;2023-01-10T21:14:18;44.15;;;25.52;;
56999;SDS011;42891;50.006;21.964;2023-01-10T21:18:19;46.13;;;25.95;;
56999;SDS011;42891;50.006;21.964;2023-01-10T21:22:23;54.90;;;32.65;;
56999;SDS011;42891;50.006;21.964;2023-01-10T21:26:23;56.35;;;29.15;;
56999;SDS011;42891;50.006;21.964;2023-01-10T21:30:24;50.27;;;27.70;;
56999;SDS011;42891;50.006;21.964;2023-01-10T21:34:24;45.17;;;25.88;;
56999;SDS011;42891;50.006;21.964;2023-01-10T21:38:25;44.05;;;26.02;;
56999;SDS011;42891;50.006;21.964;2023-01-10T21:42:30;45.45;;;27.05;;
56999;SDS011;42891;50.006;21.964;2023-01-10T21:46:34;50.35;;;27.65;;
56999;SDS011;42891;50.006;21.964;2023-01-10T21:50:34;46.58;;;26.63;;
56999;SDS011;42891;50.006;21.964;2023-01-10T21:54:34;46.17;;;26.70;;
56999;SDS011;42891;50.006;21.964;2023-01-10T21:58:35;47.35;;;26.40;;
56999;SDS011;42891;50.006;21.964;2023-01-10T22:02:35;44.92;;;25.70;;
56999;SDS011;42891;50.006;21.964;2023-01-10T22:06:35;45.70;;;25.63;;
56999;SDS011;42891;50.006;21.964;2023-01-10T22:10:36;42.17;;;25.00;;
56999;SDS011;42891;50.006;21.964;2023-01-10T22:14:36;45.97;;;26.42;;
56999;SDS011;42891;50.006;21.964;2023-01-10T22:18:36;44.53;;;26.20;;
56999;SDS011;42891;50.006;21.964;2023-01-10T22:22:37;42.27;;;25.43;;
56999;SDS011;42891;50.006;21.964;2023-01-10T22:26:37;45.20;;;26.17;;
56999;SDS011;42891;50.006;21.964;2023-01-10T22:30:37;47.05;;;26.60;;
56999;SDS011;42891;50.006;21.964;2023-01-10T22:34:37;43.17;;;26.03;;
56999;SDS011;42891;50.006;21.964;2023-01-10T22:38:38;45.55;;;25.50;;
56999;SDS011;42891;50.006;21.964;2023-01-10T22:42:40;45.85;;;25.98;;
56999;SDS011;42891;50.006;21.964;2023-01-10T22:46:40;46.23;;;26.97;;
56999;SDS011;42891;50.006;21.964;2023-01-10T22:50:46;45.93;;;26.57;;
56999;SDS011;42891;50.006;21.964;2023-01-10T22:54:47;48.35;;;26.60;;
56999;SDS011;42891;50.006;21.964;2023-01-10T22:58:48;44.03;;;25.20;;
56999;SDS011;42891;50.006;21.964;2023-01-10T23:02:48;44.78;;;25.33;;
56999;SDS011;42891;50.006;21.964;2023-01-10T23:06:49;42.83;;;24.63;;
56999;SDS011;42891;50.006;21.964;2023-01-10T23:10:49;51.17;;;26.50;;
56999;SDS011;42891;50.006;21.964;2023-01-10T23:14:49;44.60;;;26.23;;
56999;SDS011;42891;50.006;21.964;2023-01-10T23:18:49;43.77;;;25.07;;
56999;SDS011;42891;50.006;21.964;2023-01-10T23:22:50;44.70;;;25.37;;
56999;SDS011;42891;50.006;21.964;2023-01-10T23:26:50;44.07;;;25.63;;
56999;SDS011;42891;50.006;21.964;2023-01-10T23:30:50;41.25;;;25.33;;
56999;SDS011;42891;50.006;21.964;2023-01-10T23:34:51;45.97;;;25.70;;
56999;SDS011;42891;50.006;21.964;2023-01-10T23:38:51;43.90;;;26.03;;
56999;SDS011;42891;50.006;21.964;2023-01-10T23:42:51;45.20;;;26.77;;
56999;SDS011;42891;50.006;21.964;2023-01-10T23:46:51;48.03;;;25.08;;
56999;SDS011;42891;50.006;21.964;2023-01-10T23:50:52;48.65;;;26.52;;
56999;SDS011;42891;50.006;21.964;2023-01-10T23:54:52;45.17;;;26.03;;
56999;SDS011;42891;50.006;21.964;2023-01-10T23:58:52;45.97;;;25.17;;
